CheckWX is a tool to help pilots better visualize weather data.  It is not intended as a substitute for an official pre-flight weather briefing.

21:39:18 UTC

CYKF METAR
Waterloo Airport
Kitchener, Canada
Current

39 mins ago

CYKF 202100Z AUTO 09016G25KT 9SM OVC019 M02/M06 A2998 RMK SLP173
Observed
Feb-20 @ 21:00 UTC
Wind
  • 090° at 16 KTS
  • Gusting to 25 KTS
Visibility
14,484 meters
Flight Rules
MVFR
Cloud Levels
  • Overcast at 1,900' AGL
Temperature
-2°C / 28°F
Dewpoint
-6°C / 21°F
Humidity
74%
Altimeter
29.98" Hg
Pressure
1017.3 hPa
Previous

2 hours ago

CYKF 202000Z AUTO 10015KT 9SM OVC021 M02/M08 A3004 RMK SLP194
Observed
Feb-20 @ 20:00 UTC
Wind
  • 100° at 15 KTS
Visibility
14,484 meters
Flight Rules
MVFR
Cloud Levels
  • Overcast at 2,100' AGL
Temperature
-2°C / 28°F
Dewpoint
-8°C / 18°F
Humidity
64%
Altimeter
30.04" Hg
Pressure
1019.4 hPa
Previous

3 hours ago

CYKF 201900Z AUTO 09017G24KT 9SM BKN023 OVC028 M02/M07 A3005 RMK SLP198
Observed
Feb-20 @ 19:00 UTC
Wind
  • 090° at 17 KTS
  • Gusting to 24 KTS
Visibility
14,484 meters
Flight Rules
MVFR
Cloud Levels
  • Broken at 2,300' AGL
  • Overcast at 2,800' AGL
Temperature
-2°C / 28°F
Dewpoint
-7°C / 19°F
Humidity
69%
Altimeter
30.05" Hg
Pressure
1019.8 hPa